Flight Track Log - Related Links

Times and Time Zones

All times are in EDT time to prevent confusion due to time zone crossing. See the SKW2959 flight status page for this flight to view local times or setup timezone preferences in your user account.

Time Position Orientation Groundspeed Altitude Reporting Facility
EDT Latitude Longitude Course Direction KTS MPH feet Rate Location/Type
Sat 10:50:59 AM 33.4333 -111.9833 90° East 169 194 2,000  Level Phoenix TRACON
Sat 10:52:17 AM 33.4333 -111.9000 121° Southeast 219 252 4,300 1,826 Climbing Phoenix TRACON
Sat 10:53:17 AM 33.4000 -111.8333 192° South 267 307 6,200 2,033 Climbing Phoenix TRACON
Sat 10:54:18 AM 33.3333 -111.8500 220° Southwest 272 313 8,400 2,243 Climbing Phoenix TRACON
Sat 10:55:12 AM 33.2833 -111.9000 281° West 282 325 10,500 2,053 Climbing Phoenix TRACON
Sat 10:56:12 AM 33.3000 -112.0000 281° West 289 333 12,300 1,950 Climbing Phoenix TRACON
Sat 10:57:12 AM 33.3167 -112.1000 286° West 312 359 14,400 1,759 Climbing Phoenix TRACON
Sat 10:58:08 AM 33.3414 -112.2050 282° West 313 360 15,700 1,655 Climbing Albuquerque Center
Sat 10:59:08 AM 33.3583 -112.3003 283° West 338 389 17,600 1,700 Climbing Albuquerque Center
Sat 11:00:08 AM 33.3792 -112.4061 281° West 338 389 19,100 1,300 Climbing Albuquerque Center
Sat 11:01:08 AM 33.3972 -112.5164 282° West 338 389 20,200 1,150 Climbing Albuquerque Center
Sat 11:02:08 AM 33.4158 -112.6172 282° West 338 389 21,400 1,250 Climbing Albuquerque Center
Sat 11:03:08 AM 33.4358 -112.7278 282° West 338 389 22,700 1,200 Climbing Albuquerque Center
Sat 11:04:08 AM 33.4558 -112.8411 285° West 338 389 23,800 1,000 Climbing Albuquerque Center
Sat 11:05:08 AM 33.4783 -112.9422 281° West 338 389 24,700 900 Climbing Albuquerque Center
Sat 11:06:08 AM 33.4975 -113.0656 285° West 343 395 25,600 850 Climbing Albuquerque Center
Sat 11:07:08 AM 33.5231 -113.1842 282° West 362 417 26,400 850 Climbing Albuquerque Center
Sat 11:08:08 AM 33.5442 -113.3053 282° West 362 417 27,300 750 Climbing Albuquerque Center
Sat 11:09:08 AM 33.5656 -113.4214 283° West 362 417 27,900 578 Climbing Albuquerque Center
Sat 11:11:15 AM 33.6169 -113.6917 281° West 374 430 29,100 545 Climbing Los Angeles Center
Sat 11:12:15 AM 33.6383 -113.8208 287° West 382 440 29,600 450 Climbing Los Angeles Center
Sat 11:13:15 AM 33.6697 -113.9472 287° West 389 448 30,000 200 Climbing Los Angeles Center
Sat 11:14:15 AM 33.7033 -114.0761 286° West 394 453 30,000 350 Level Los Angeles Center
Sat 11:15:15 AM 33.7344 -114.2053 287° West 394 453 30,700 700 Climbing Los Angeles Center
Sat 11:16:15 AM 33.7678 -114.3347 286° West 394 453 31,400 600 Climbing Los Angeles Center
Sat 11:17:15 AM 33.7967 -114.4589 288° West 394 453 31,900 300 Climbing Los Angeles Center
Sat 11:18:15 AM 33.8317 -114.5858 286° West 394 453 32,000 50 Climbing Los Angeles Center
Sat 11:19:15 AM 33.8625 -114.7128 286° West 394 453 32,000  Level Los Angeles Center
Sat 11:20:15 AM 33.8931 -114.8400 286° West 394 453 32,000  Level Los Angeles Center
Sat 11:21:15 AM 33.9236 -114.9647 286° West 394 453 32,000  Level Los Angeles Center
Sat 11:22:15 AM 33.9539 -115.0894 287° West 394 453 32,000  Level Los Angeles Center
Sat 11:23:15 AM 33.9842 -115.2119 287° West 389 448 32,000  Level Los Angeles Center
Sat 11:24:15 AM 34.0142 -115.3317 286° West 389 448 32,000  Level Los Angeles Center
Sat 11:25:15 AM 34.0442 -115.4544 286° West 384 442 32,000  Level Los Angeles Center
Sat 11:26:15 AM 34.0719 -115.5744 285° West 374 430 32,000  Level Los Angeles Center
Sat 11:27:15 AM 34.0994 -115.6972 287° West 379 436 32,000  Level Los Angeles Center
Sat 11:28:15 AM 34.1292 -115.8175 282° West 379 436 32,000  Level Los Angeles Center
Sat 11:29:15 AM 34.1481 -115.9281 285° West 374 430 32,000  Level Los Angeles Center
Sat 11:30:15 AM 34.1753 -116.0483 285° West 374 430 32,000  Level Los Angeles Center
Sat 11:31:15 AM 34.2044 -116.1764 285° West 374 430 32,000  Level Los Angeles Center
Sat 11:32:15 AM 34.2336 -116.3047 277° West 387 445 32,000  Level Los Angeles Center
Sat 11:33:15 AM 34.2481 -116.4403 272° West 400 460 32,000  Level Los Angeles Center
Sat 11:34:15 AM 34.2517 -116.5811 275° West 412 474 32,000  Level Los Angeles Center
Sat 11:35:15 AM 34.2617 -116.7169 274° West 418 481 32,000  Level Los Angeles Center
Sat 11:36:15 AM 34.2692 -116.8553 276° West 418 481 32,000  Level Los Angeles Center
Sat 11:37:15 AM 34.2808 -116.9836 274° West 411 473 32,000  Level Los Angeles Center
Sat 11:38:15 AM 34.2881 -117.1169 273° West 405 466 32,000  Level Los Angeles Center
Sat 11:39:15 AM 34.2933 -117.2478 274° West 405 466 32,000  Level Los Angeles Center
Sat 11:40:15 AM 34.3003 -117.3811 270° West 405 466 32,000  Level Los Angeles Center
Sat 11:41:15 AM 34.3011 -117.5117 273° West 405 466 32,000  Level Los Angeles Center
Sat 11:42:15 AM 34.3078 -117.6478 272° West 405 466 32,000  Level Los Angeles Center
Sat 11:43:15 AM 34.3122 -117.7811 275° West 405 466 32,000  Level Los Angeles Center
Sat 11:44:16 AM 34.3228 -117.9247 272° West 405 466 32,000  Level Los Angeles Center
Sat 11:45:15 AM 34.3269 -118.0606 273° West 405 466 32,000 -50 Level Los Angeles Center
Sat 11:46:15 AM 34.3331 -118.1939 272° West 405 466 31,900 -1,350 Descending Los Angeles Center
Sat 11:47:15 AM 34.3369 -118.3325 273° West 405 466 29,300 -2,600 Descending Los Angeles Center
Sat 11:48:15 AM 34.3428 -118.4686 273° West 410 472 26,700 -2,600 Descending Los Angeles Center
Sat 11:49:15 AM 34.3483 -118.6069 272° West 410 472 24,100 -1,350 Descending Los Angeles Center
Sat 11:50:15 AM 34.3517 -118.7381 272° West 405 466 24,000 -350 Descending Los Angeles Center
Sat 11:51:15 AM 34.3550 -118.8714 266° West 405 466 23,400 -1,700 Descending Los Angeles Center
Sat 11:52:15 AM 34.3486 -118.9769 264° West 400 460 20,600 -3,287 Descending Los Angeles Center
Sat 11:53:10 AM 34.3369 -119.1122 264° West 381 438 17,100 -3,519 Descending Los Angeles Center
Sat 11:53:59 AM 34.3281 -119.2100 265° West 368 423 14,500 -3,193 Descending Los Angeles Center
Sat 11:54:59 AM 34.3186 -119.3331 265° West 356 410 11,300 -2,231 Descending Los Angeles Center
Sat 11:56:00 AM 34.3119 -119.4333 269° West 294 338 10,000 -1,500 Descending Los Angeles Center
Sat 11:57:15 AM 34.3108 -119.5464 274° West 300 345 7,900 -1,835 Descending Los Angeles Center
Sat 11:58:01 AM 34.3150 -119.6219 272° West 275 316 6,300 -1,009 Descending Los Angeles Center
Sat 11:59:08 AM 34.3183 -119.7203 272° West 263 303 6,000 -135 Descending Los Angeles Center
Sat 12:00:14 PM 34.3217 -119.8186 283° West 252 290 6,000  Level Los Angeles Center
Sat 12:01:09 PM 34.3342 -119.8844 277° West 219 252 6,000  Level Los Angeles Center
Sat 12:02:09 PM 34.3406 -119.9503 264° West 196 226 6,000 -1,048 Level Los Angeles Center
Sat 12:03:15 PM 34.3342 -120.0228 321° Northwest 201 231 3,800 -1,734 Descending Los Angeles Center
Sat 12:04:17 PM 34.3725 -120.0600 27° Northeast 189 217 2,300 -900 Descending Los Angeles Center
Sat 12:05:15 PM 34.4025 -120.0411 62° Northeast 103 119 2,000 -157 Descending Los Angeles Center
Sat 12:06:12 PM 34.4228 -119.9942 85° East 178 205 2,000 -270 Level Los Angeles Center
Sat 12:07:06 PM 34.4264 -119.9414 94° East 155 178 1,500 -678 Descending Los Angeles Center
Sat 12:08:07 PM 34.4236 -119.8986 79° East 137 158 700 -651 Descending Los Angeles Center
Sat 12:09:15 PM 34.4314 -119.8486 79° East 131 151 100 -529 Descending Los Angeles Center

Login

Don't have an account? Register now (free) for customized features, flight alerts, and more!